sensor_id;sensor_type;location;lat;lon;timestamp;P1;durP1;ratioP1;P2;durP2;ratioP2
10293;SDS011;5192;50.328;7.610;2022-11-20T00:01:22;28.93;;;16.63;;
10293;SDS011;5192;50.328;7.610;2022-11-20T00:03:55;27.97;;;16.67;;
10293;SDS011;5192;50.328;7.610;2022-11-20T00:06:23;28.13;;;16.50;;
10293;SDS011;5192;50.328;7.610;2022-11-20T00:08:50;25.40;;;15.47;;
10293;SDS011;5192;50.328;7.610;2022-11-20T00:11:19;27.93;;;16.83;;
10293;SDS011;5192;50.328;7.610;2022-11-20T00:13:50;27.10;;;16.63;;
10293;SDS011;5192;50.328;7.610;2022-11-20T00:16:19;28.90;;;16.60;;
10293;SDS011;5192;50.328;7.610;2022-11-20T00:18:48;26.77;;;15.87;;
10293;SDS011;5192;50.328;7.610;2022-11-20T00:21:22;26.33;;;16.40;;
10293;SDS011;5192;50.328;7.610;2022-11-20T00:23:51;29.03;;;15.73;;
10293;SDS011;5192;50.328;7.610;2022-11-20T00:26:23;30.37;;;16.83;;
10293;SDS011;5192;50.328;7.610;2022-11-20T00:28:53;30.50;;;16.50;;
10293;SDS011;5192;50.328;7.610;2022-11-20T00:31:20;28.60;;;16.80;;
10293;SDS011;5192;50.328;7.610;2022-11-20T00:33:48;27.27;;;16.37;;
10293;SDS011;5192;50.328;7.610;2022-11-20T00:36:17;30.70;;;17.00;;
10293;SDS011;5192;50.328;7.610;2022-11-20T00:38:45;26.00;;;15.67;;
10293;SDS011;5192;50.328;7.610;2022-11-20T00:41:13;29.80;;;17.07;;
10293;SDS011;5192;50.328;7.610;2022-11-20T00:43:40;28.13;;;17.57;;
10293;SDS011;5192;50.328;7.610;2022-11-20T00:46:13;26.93;;;15.57;;
10293;SDS011;5192;50.328;7.610;2022-11-20T00:48:41;29.23;;;15.57;;
10293;SDS011;5192;50.328;7.610;2022-11-20T00:51:08;26.37;;;15.97;;
10293;SDS011;5192;50.328;7.610;2022-11-20T00:53:36;24.93;;;16.53;;
10293;SDS011;5192;50.328;7.610;2022-11-20T00:56:04;30.20;;;16.47;;
10293;SDS011;5192;50.328;7.610;2022-11-20T00:58:35;29.47;;;17.07;;
10293;SDS011;5192;50.328;7.610;2022-11-20T01:01:07;26.97;;;16.03;;
10293;SDS011;5192;50.328;7.610;2022-11-20T01:03:56;25.50;;;15.63;;
10293;SDS011;5192;50.328;7.610;2022-11-20T01:06:30;28.83;;;16.30;;
10293;SDS011;5192;50.328;7.610;2022-11-20T01:08:59;28.70;;;16.67;;
10293;SDS011;5192;50.328;7.610;2022-11-20T01:11:28;28.03;;;16.70;;
10293;SDS011;5192;50.328;7.610;2022-11-20T01:14:01;27.57;;;17.03;;
10293;SDS011;5192;50.328;7.610;2022-11-20T01:16:31;28.80;;;17.60;;
10293;SDS011;5192;50.328;7.610;2022-11-20T01:18:59;27.43;;;16.33;;
10293;SDS011;5192;50.328;7.610;2022-11-20T01:24:14;29.53;;;16.87;;
10293;SDS011;5192;50.328;7.610;2022-11-20T01:26:43;31.43;;;17.43;;
10293;SDS011;5192;50.328;7.610;2022-11-20T01:29:15;29.63;;;17.77;;
10293;SDS011;5192;50.328;7.610;2022-11-20T01:31:50;31.23;;;17.27;;
10293;SDS011;5192;50.328;7.610;2022-11-20T01:34:19;31.50;;;17.57;;
10293;SDS011;5192;50.328;7.610;2022-11-20T01:36:48;29.27;;;17.43;;
10293;SDS011;5192;50.328;7.610;2022-11-20T01:39:16;30.23;;;17.70;;
10293;SDS011;5192;50.328;7.610;2022-11-20T01:41:48;30.93;;;18.43;;
10293;SDS011;5192;50.328;7.610;2022-11-20T01:44:54;31.33;;;18.23;;
10293;SDS011;5192;50.328;7.610;2022-11-20T01:47:40;31.27;;;17.87;;
10293;SDS011;5192;50.328;7.610;2022-11-20T01:52:51;31.80;;;18.47;;
10293;SDS011;5192;50.328;7.610;2022-11-20T01:55:37;33.47;;;18.03;;
10293;SDS011;5192;50.328;7.610;2022-11-20T01:58:23;34.80;;;19.23;;
10293;SDS011;5192;50.328;7.610;2022-11-20T02:00:53;32.60;;;18.43;;
10293;SDS011;5192;50.328;7.610;2022-11-20T02:03:19;30.07;;;18.10;;
10293;SDS011;5192;50.328;7.610;2022-11-20T02:08:32;31.93;;;19.40;;
10293;SDS011;5192;50.328;7.610;2022-11-20T02:11:00;33.33;;;18.70;;
10293;SDS011;5192;50.328;7.610;2022-11-20T02:13:27;30.37;;;19.03;;
10293;SDS011;5192;50.328;7.610;2022-11-20T02:18:56;32.10;;;18.80;;
10293;SDS011;5192;50.328;7.610;2022-11-20T02:24:35;30.90;;;18.90;;
10293;SDS011;5192;50.328;7.610;2022-11-20T02:29:55;31.30;;;18.63;;
10293;SDS011;5192;50.328;7.610;2022-11-20T02:32:35;33.03;;;19.10;;
10293;SDS011;5192;50.328;7.610;2022-11-20T02:37:48;34.53;;;19.23;;
10293;SDS011;5192;50.328;7.610;2022-11-20T02:40:18;32.07;;;18.50;;
10293;SDS011;5192;50.328;7.610;2022-11-20T02:42:45;30.17;;;18.10;;
10293;SDS011;5192;50.328;7.610;2022-11-20T02:45:13;31.90;;;18.87;;
10293;SDS011;5192;50.328;7.610;2022-11-20T02:47:41;33.93;;;19.50;;
10293;SDS011;5192;50.328;7.610;2022-11-20T02:50:07;30.53;;;18.23;;
10293;SDS011;5192;50.328;7.610;2022-11-20T02:52:36;31.93;;;18.80;;
10293;SDS011;5192;50.328;7.610;2022-11-20T02:55:02;32.23;;;19.10;;
10293;SDS011;5192;50.328;7.610;2022-11-20T02:57:29;33.73;;;18.73;;
10293;SDS011;5192;50.328;7.610;2022-11-20T02:59:56;35.70;;;20.23;;
10293;SDS011;5192;50.328;7.610;2022-11-20T03:02:23;34.77;;;19.07;;
10293;SDS011;5192;50.328;7.610;2022-11-20T03:04:50;31.03;;;18.60;;
10293;SDS011;5192;50.328;7.610;2022-11-20T03:07:17;33.13;;;18.80;;
10293;SDS011;5192;50.328;7.610;2022-11-20T03:09:42;34.67;;;20.30;;
10293;SDS011;5192;50.328;7.610;2022-11-20T03:12:10;34.67;;;20.10;;
10293;SDS011;5192;50.328;7.610;2022-11-20T03:14:38;34.63;;;19.57;;
10293;SDS011;5192;50.328;7.610;2022-11-20T03:17:05;32.70;;;19.20;;
10293;SDS011;5192;50.328;7.610;2022-11-20T03:19:31;32.83;;;19.80;;
10293;SDS011;5192;50.328;7.610;2022-11-20T03:22:00;31.97;;;18.73;;
10293;SDS011;5192;50.328;7.610;2022-11-20T03:24:27;31.70;;;18.57;;
10293;SDS011;5192;50.328;7.610;2022-11-20T03:26:55;34.50;;;19.57;;
10293;SDS011;5192;50.328;7.610;2022-11-20T03:29:21;34.07;;;19.47;;
10293;SDS011;5192;50.328;7.610;2022-11-20T03:31:49;30.47;;;18.47;;
10293;SDS011;5192;50.328;7.610;2022-11-20T03:34:17;31.87;;;18.53;;
10293;SDS011;5192;50.328;7.610;2022-11-20T03:36:44;32.83;;;19.17;;
10293;SDS011;5192;50.328;7.610;2022-11-20T03:39:12;32.47;;;19.40;;
10293;SDS011;5192;50.328;7.610;2022-11-20T03:41:39;30.37;;;18.47;;
10293;SDS011;5192;50.328;7.610;2022-11-20T03:44:09;29.50;;;17.20;;
10293;SDS011;5192;50.328;7.610;2022-11-20T03:46:37;29.23;;;17.60;;
10293;SDS011;5192;50.328;7.610;2022-11-20T03:49:03;30.50;;;17.90;;
10293;SDS011;5192;50.328;7.610;2022-11-20T03:51:31;29.03;;;17.63;;
10293;SDS011;5192;50.328;7.610;2022-11-20T03:54:00;29.70;;;18.13;;
10293;SDS011;5192;50.328;7.610;2022-11-20T03:56:32;30.40;;;18.37;;
10293;SDS011;5192;50.328;7.610;2022-11-20T03:59:02;31.53;;;18.50;;
10293;SDS011;5192;50.328;7.610;2022-11-20T04:01:33;32.37;;;18.27;;
10293;SDS011;5192;50.328;7.610;2022-11-20T04:04:02;34.87;;;18.83;;
10293;SDS011;5192;50.328;7.610;2022-11-20T04:06:33;36.53;;;20.40;;
10293;SDS011;5192;50.328;7.610;2022-11-20T04:09:06;32.30;;;18.30;;
10293;SDS011;5192;50.328;7.610;2022-11-20T04:11:34;32.07;;;18.50;;
10293;SDS011;5192;50.328;7.610;2022-11-20T04:14:04;34.53;;;18.80;;
10293;SDS011;5192;50.328;7.610;2022-11-20T04:16:34;32.33;;;18.13;;
10293;SDS011;5192;50.328;7.610;2022-11-20T04:19:05;31.17;;;17.60;;
10293;SDS011;5192;50.328;7.610;2022-11-20T04:21:36;30.50;;;18.30;;
10293;SDS011;5192;50.328;7.610;2022-11-20T04:24:02;33.77;;;18.50;;
10293;SDS011;5192;50.328;7.610;2022-11-20T04:26:29;30.83;;;17.03;;
10293;SDS011;5192;50.328;7.610;2022-11-20T04:28:56;30.53;;;17.00;;
10293;SDS011;5192;50.328;7.610;2022-11-20T04:31:26;31.17;;;17.50;;
10293;SDS011;5192;50.328;7.610;2022-11-20T04:33:58;32.77;;;17.37;;
10293;SDS011;5192;50.328;7.610;2022-11-20T04:36:29;28.30;;;16.60;;
10293;SDS011;5192;50.328;7.610;2022-11-20T04:38:57;31.07;;;17.77;;
10293;SDS011;5192;50.328;7.610;2022-11-20T04:41:26;33.47;;;17.60;;
10293;SDS011;5192;50.328;7.610;2022-11-20T04:43:54;33.37;;;18.00;;
10293;SDS011;5192;50.328;7.610;2022-11-20T04:46:26;32.33;;;18.10;;
10293;SDS011;5192;50.328;7.610;2022-11-20T04:48:55;30.93;;;17.53;;
10293;SDS011;5192;50.328;7.610;2022-11-20T04:51:22;32.63;;;17.73;;
10293;SDS011;5192;50.328;7.610;2022-11-20T04:53:49;33.00;;;18.60;;
10293;SDS011;5192;50.328;7.610;2022-11-20T04:56:17;31.03;;;18.10;;
10293;SDS011;5192;50.328;7.610;2022-11-20T04:58:44;31.97;;;18.07;;
10293;SDS011;5192;50.328;7.610;2022-11-20T05:01:13;34.90;;;19.07;;
10293;SDS011;5192;50.328;7.610;2022-11-20T05:03:41;31.23;;;17.97;;
10293;SDS011;5192;50.328;7.610;2022-11-20T05:06:11;33.47;;;18.10;;
10293;SDS011;5192;50.328;7.610;2022-11-20T05:08:39;35.40;;;18.33;;
10293;SDS011;5192;50.328;7.610;2022-11-20T05:13:50;29.87;;;18.17;;
10293;SDS011;5192;50.328;7.610;2022-11-20T05:16:19;33.40;;;18.40;;
10293;SDS011;5192;50.328;7.610;2022-11-20T05:18:52;35.53;;;17.80;;
10293;SDS011;5192;50.328;7.610;2022-11-20T05:21:20;31.73;;;17.57;;
10293;SDS011;5192;50.328;7.610;2022-11-20T05:23:47;31.87;;;18.13;;
10293;SDS011;5192;50.328;7.610;2022-11-20T05:26:16;29.70;;;17.87;;
10293;SDS011;5192;50.328;7.610;2022-11-20T05:28:44;29.83;;;17.03;;
10293;SDS011;5192;50.328;7.610;2022-11-20T05:31:14;30.87;;;17.77;;
10293;SDS011;5192;50.328;7.610;2022-11-20T05:33:45;32.23;;;19.47;;
10293;SDS011;5192;50.328;7.610;2022-11-20T05:36:13;34.17;;;19.43;;
10293;SDS011;5192;50.328;7.610;2022-11-20T05:38:40;34.40;;;18.70;;
10293;SDS011;5192;50.328;7.610;2022-11-20T05:41:08;35.77;;;19.00;;
10293;SDS011;5192;50.328;7.610;2022-11-20T05:43:41;36.50;;;18.37;;
10293;SDS011;5192;50.328;7.610;2022-11-20T05:46:11;38.90;;;20.33;;
10293;SDS011;5192;50.328;7.610;2022-11-20T05:48:39;38.90;;;21.20;;
10293;SDS011;5192;50.328;7.610;2022-11-20T05:51:09;40.77;;;21.53;;
10293;SDS011;5192;50.328;7.610;2022-11-20T05:53:37;39.87;;;18.57;;
10293;SDS011;5192;50.328;7.610;2022-11-20T05:56:05;39.57;;;20.03;;
10293;SDS011;5192;50.328;7.610;2022-11-20T05:58:52;37.33;;;18.50;;
10293;SDS011;5192;50.328;7.610;2022-11-20T06:01:22;37.00;;;18.33;;
10293;SDS011;5192;50.328;7.610;2022-11-20T06:03:49;33.53;;;17.63;;
10293;SDS011;5192;50.328;7.610;2022-11-20T06:06:17;34.17;;;17.50;;
10293;SDS011;5192;50.328;7.610;2022-11-20T06:08:45;33.87;;;17.37;;
10293;SDS011;5192;50.328;7.610;2022-11-20T06:11:11;32.43;;;17.67;;
10293;SDS011;5192;50.328;7.610;2022-11-20T06:13:40;33.03;;;17.80;;
10293;SDS011;5192;50.328;7.610;2022-11-20T06:16:07;31.10;;;16.83;;
10293;SDS011;5192;50.328;7.610;2022-11-20T06:18:33;35.60;;;17.37;;
10293;SDS011;5192;50.328;7.610;2022-11-20T06:21:20;35.73;;;18.77;;
10293;SDS011;5192;50.328;7.610;2022-11-20T06:23:48;35.20;;;19.00;;
10293;SDS011;5192;50.328;7.610;2022-11-20T06:26:27;31.73;;;16.93;;
10293;SDS011;5192;50.328;7.610;2022-11-20T06:29:05;30.73;;;16.80;;
10293;SDS011;5192;50.328;7.610;2022-11-20T06:31:32;28.63;;;16.13;;
10293;SDS011;5192;50.328;7.610;2022-11-20T06:34:05;30.87;;;16.80;;
10293;SDS011;5192;50.328;7.610;2022-11-20T06:36:33;32.80;;;17.17;;
10293;SDS011;5192;50.328;7.610;2022-11-20T06:39:01;30.20;;;16.50;;
10293;SDS011;5192;50.328;7.610;2022-11-20T06:41:32;31.73;;;16.60;;
10293;SDS011;5192;50.328;7.610;2022-11-20T06:43:58;27.33;;;16.13;;
10293;SDS011;5192;50.328;7.610;2022-11-20T06:46:25;31.70;;;16.83;;
10293;SDS011;5192;50.328;7.610;2022-11-20T06:48:52;30.27;;;15.80;;
10293;SDS011;5192;50.328;7.610;2022-11-20T06:51:19;32.97;;;17.00;;
10293;SDS011;5192;50.328;7.610;2022-11-20T06:53:46;27.20;;;14.30;;
10293;SDS011;5192;50.328;7.610;2022-11-20T06:56:14;26.23;;;14.50;;
10293;SDS011;5192;50.328;7.610;2022-11-20T06:58:41;36.57;;;19.13;;
10293;SDS011;5192;50.328;7.610;2022-11-20T07:01:09;33.03;;;18.40;;
10293;SDS011;5192;50.328;7.610;2022-11-20T07:03:37;31.70;;;16.90;;
10293;SDS011;5192;50.328;7.610;2022-11-20T07:06:04;36.67;;;18.40;;
10293;SDS011;5192;50.328;7.610;2022-11-20T07:08:30;36.50;;;17.87;;
10293;SDS011;5192;50.328;7.610;2022-11-20T07:10:59;32.17;;;17.47;;
10293;SDS011;5192;50.328;7.610;2022-11-20T07:13:29;33.60;;;16.77;;
10293;SDS011;5192;50.328;7.610;2022-11-20T07:16:01;32.00;;;17.77;;
10293;SDS011;5192;50.328;7.610;2022-11-20T07:18:29;32.23;;;17.20;;
10293;SDS011;5192;50.328;7.610;2022-11-20T07:21:01;34.37;;;17.70;;
10293;SDS011;5192;50.328;7.610;2022-11-20T07:23:47;33.20;;;17.10;;
10293;SDS011;5192;50.328;7.610;2022-11-20T07:26:15;32.33;;;16.40;;
10293;SDS011;5192;50.328;7.610;2022-11-20T07:28:43;29.67;;;17.43;;
10293;SDS011;5192;50.328;7.610;2022-11-20T07:31:11;30.57;;;16.80;;
10293;SDS011;5192;50.328;7.610;2022-11-20T07:33:40;35.80;;;17.50;;
10293;SDS011;5192;50.328;7.610;2022-11-20T07:36:07;32.63;;;17.37;;
10293;SDS011;5192;50.328;7.610;2022-11-20T07:38:34;33.87;;;17.40;;
10293;SDS011;5192;50.328;7.610;2022-11-20T07:41:03;34.27;;;18.23;;
10293;SDS011;5192;50.328;7.610;2022-11-20T07:43:34;33.37;;;18.23;;
10293;SDS011;5192;50.328;7.610;2022-11-20T07:46:01;35.97;;;19.17;;
10293;SDS011;5192;50.328;7.610;2022-11-20T07:48:30;35.97;;;19.90;;
10293;SDS011;5192;50.328;7.610;2022-11-20T07:50:56;35.23;;;19.00;;
10293;SDS011;5192;50.328;7.610;2022-11-20T07:53:23;34.90;;;18.67;;
10293;SDS011;5192;50.328;7.610;2022-11-20T07:55:52;36.90;;;19.50;;
10293;SDS011;5192;50.328;7.610;2022-11-20T07:58:18;38.47;;;19.40;;
10293;SDS011;5192;50.328;7.610;2022-11-20T08:00:46;39.20;;;19.60;;
10293;SDS011;5192;50.328;7.610;2022-11-20T08:03:12;34.17;;;18.23;;
10293;SDS011;5192;50.328;7.610;2022-11-20T08:05:38;32.63;;;17.90;;
10293;SDS011;5192;50.328;7.610;2022-11-20T08:08:06;34.07;;;17.73;;
10293;SDS011;5192;50.328;7.610;2022-11-20T08:10:32;33.47;;;18.27;;
10293;SDS011;5192;50.328;7.610;2022-11-20T08:12:59;33.60;;;18.83;;
10293;SDS011;5192;50.328;7.610;2022-11-20T08:15:49;35.63;;;20.13;;
10293;SDS011;5192;50.328;7.610;2022-11-20T08:18:17;37.17;;;18.67;;
10293;SDS011;5192;50.328;7.610;2022-11-20T08:20:44;31.13;;;17.47;;
10293;SDS011;5192;50.328;7.610;2022-11-20T08:23:10;31.40;;;17.63;;
10293;SDS011;5192;50.328;7.610;2022-11-20T08:25:39;33.60;;;18.33;;
10293;SDS011;5192;50.328;7.610;2022-11-20T08:28:07;30.40;;;17.60;;
10293;SDS011;5192;50.328;7.610;2022-11-20T08:30:35;30.00;;;17.37;;
10293;SDS011;5192;50.328;7.610;2022-11-20T08:33:04;31.70;;;17.57;;
10293;SDS011;5192;50.328;7.610;2022-11-20T08:35:37;33.00;;;17.60;;
10293;SDS011;5192;50.328;7.610;2022-11-20T08:38:03;31.57;;;17.73;;
10293;SDS011;5192;50.328;7.610;2022-11-20T08:40:32;32.70;;;17.13;;
10293;SDS011;5192;50.328;7.610;2022-11-20T08:43:00;29.00;;;17.00;;
10293;SDS011;5192;50.328;7.610;2022-11-20T08:45:27;31.77;;;18.00;;
10293;SDS011;5192;50.328;7.610;2022-11-20T08:47:53;32.20;;;17.77;;
10293;SDS011;5192;50.328;7.610;2022-11-20T08:50:24;32.53;;;18.07;;
10293;SDS011;5192;50.328;7.610;2022-11-20T08:52:50;36.47;;;18.27;;
10293;SDS011;5192;50.328;7.610;2022-11-20T08:55:18;33.03;;;17.57;;
10293;SDS011;5192;50.328;7.610;2022-11-20T08:57:45;29.80;;;16.93;;
10293;SDS011;5192;50.328;7.610;2022-11-20T09:00:12;31.23;;;18.00;;
10293;SDS011;5192;50.328;7.610;2022-11-20T09:02:39;29.53;;;17.87;;
10293;SDS011;5192;50.328;7.610;2022-11-20T09:05:06;30.17;;;17.43;;
10293;SDS011;5192;50.328;7.610;2022-11-20T09:07:32;30.10;;;16.43;;
10293;SDS011;5192;50.328;7.610;2022-11-20T09:09:57;27.70;;;17.23;;
10293;SDS011;5192;50.328;7.610;2022-11-20T09:12:24;31.23;;;18.87;;
10293;SDS011;5192;50.328;7.610;2022-11-20T09:14:52;28.57;;;17.77;;
10293;SDS011;5192;50.328;7.610;2022-11-20T09:17:19;24.73;;;15.47;;
10293;SDS011;5192;50.328;7.610;2022-11-20T09:19:46;29.30;;;17.47;;
10293;SDS011;5192;50.328;7.610;2022-11-20T09:22:13;29.10;;;17.77;;
10293;SDS011;5192;50.328;7.610;2022-11-20T09:24:40;29.93;;;17.27;;
10293;SDS011;5192;50.328;7.610;2022-11-20T09:27:08;27.43;;;17.23;;
10293;SDS011;5192;50.328;7.610;2022-11-20T09:29:33;26.53;;;14.63;;
10293;SDS011;5192;50.328;7.610;2022-11-20T09:32:01;27.70;;;15.53;;
10293;SDS011;5192;50.328;7.610;2022-11-20T09:34:29;21.33;;;13.13;;
10293;SDS011;5192;50.328;7.610;2022-11-20T09:36:57;23.27;;;14.23;;
10293;SDS011;5192;50.328;7.610;2022-11-20T09:39:24;21.83;;;13.67;;
10293;SDS011;5192;50.328;7.610;2022-11-20T09:45:00;22.33;;;14.00;;
10293;SDS011;5192;50.328;7.610;2022-11-20T09:50:27;24.00;;;14.40;;
10293;SDS011;5192;50.328;7.610;2022-11-20T09:55:51;19.80;;;12.03;;
10293;SDS011;5192;50.328;7.610;2022-11-20T10:01:18;23.53;;;12.17;;
10293;SDS011;5192;50.328;7.610;2022-11-20T10:03:50;23.07;;;13.47;;
10293;SDS011;5192;50.328;7.610;2022-11-20T10:06:53;17.80;;;11.37;;
10293;SDS011;5192;50.328;7.610;2022-11-20T10:09:34;23.33;;;13.23;;
10293;SDS011;5192;50.328;7.610;2022-11-20T10:12:07;21.70;;;13.30;;
10293;SDS011;5192;50.328;7.610;2022-11-20T10:20:40;21.83;;;13.20;;
10293;SDS011;5192;50.328;7.610;2022-11-20T10:26:48;22.70;;;12.87;;
10293;SDS011;5192;50.328;7.610;2022-11-20T10:30:12;23.83;;;13.37;;
10293;SDS011;5192;50.328;7.610;2022-11-20T10:32:39;22.70;;;14.00;;
10293;SDS011;5192;50.328;7.610;2022-11-20T10:35:23;19.80;;;12.97;;
10293;SDS011;5192;50.328;7.610;2022-11-20T10:38:09;25.30;;;15.07;;
10293;SDS011;5192;50.328;7.610;2022-11-20T10:41:01;26.17;;;16.57;;
10293;SDS011;5192;50.328;7.610;2022-11-20T10:43:50;17.43;;;11.50;;
10293;SDS011;5192;50.328;7.610;2022-11-20T10:46:23;16.20;;;10.57;;
10293;SDS011;5192;50.328;7.610;2022-11-20T10:48:50;14.73;;;10.03;;
10293;SDS011;5192;50.328;7.610;2022-11-20T10:54:24;14.27;;;10.20;;
10293;SDS011;5192;50.328;7.610;2022-11-20T11:00:13;15.60;;;10.80;;
10293;SDS011;5192;50.328;7.610;2022-11-20T11:02:53;17.17;;;11.57;;
10293;SDS011;5192;50.328;7.610;2022-11-20T11:08:18;19.33;;;11.63;;
10293;SDS011;5192;50.328;7.610;2022-11-20T11:14:10;16.60;;;12.00;;
10293;SDS011;5192;50.328;7.610;2022-11-20T11:16:53;16.77;;;11.43;;
10293;SDS011;5192;50.328;7.610;2022-11-20T11:19:22;15.87;;;11.73;;
10293;SDS011;5192;50.328;7.610;2022-11-20T11:21:54;18.20;;;12.30;;
10293;SDS011;5192;50.328;7.610;2022-11-20T11:24:23;17.00;;;11.67;;
10293;SDS011;5192;50.328;7.610;2022-11-20T11:27:03;17.43;;;12.43;;
10293;SDS011;5192;50.328;7.610;2022-11-20T11:29:37;17.63;;;11.60;;
10293;SDS011;5192;50.328;7.610;2022-11-20T11:35:51;15.33;;;9.93;;
10293;SDS011;5192;50.328;7.610;2022-11-20T11:37:53;16.00;;;10.07;;
10293;SDS011;5192;50.328;7.610;2022-11-20T11:40:31;15.43;;;10.70;;
10293;SDS011;5192;50.328;7.610;2022-11-20T11:43:02;16.27;;;11.33;;
10293;SDS011;5192;50.328;7.610;2022-11-20T11:45:52;16.37;;;10.67;;
10293;SDS011;5192;50.328;7.610;2022-11-20T11:48:22;14.27;;;10.33;;
10293;SDS011;5192;50.328;7.610;2022-11-20T11:50:50;13.60;;;9.33;;
10293;SDS011;5192;50.328;7.610;2022-11-20T11:53:19;14.47;;;10.03;;
10293;SDS011;5192;50.328;7.610;2022-11-20T11:55:54;16.00;;;9.87;;
10293;SDS011;5192;50.328;7.610;2022-11-20T11:58:38;13.83;;;10.27;;
10293;SDS011;5192;50.328;7.610;2022-11-20T12:10:17;16.27;;;10.77;;
10293;SDS011;5192;50.328;7.610;2022-11-20T12:16:11;16.50;;;10.97;;
10293;SDS011;5192;50.328;7.610;2022-11-20T12:18:49;17.00;;;11.80;;
10293;SDS011;5192;50.328;7.610;2022-11-20T12:30:07;16.00;;;10.93;;
10293;SDS011;5192;50.328;7.610;2022-11-20T12:38:56;17.80;;;12.23;;
10293;SDS011;5192;50.328;7.610;2022-11-20T12:48:10;17.43;;;11.67;;
10293;SDS011;5192;50.328;7.610;2022-11-20T13:00:24;13.23;;;9.87;;
10293;SDS011;5192;50.328;7.610;2022-11-20T13:19:27;14.90;;;11.00;;
10293;SDS011;5192;50.328;7.610;2022-11-20T13:21:56;16.13;;;11.03;;
10293;SDS011;5192;50.328;7.610;2022-11-20T13:24:28;13.63;;;10.47;;
10293;SDS011;5192;50.328;7.610;2022-11-20T13:27:03;16.10;;;10.23;;
10293;SDS011;5192;50.328;7.610;2022-11-20T13:29:43;15.77;;;10.60;;
10293;SDS011;5192;50.328;7.610;2022-11-20T13:32:35;17.03;;;11.13;;
10293;SDS011;5192;50.328;7.610;2022-11-20T13:35:13;13.83;;;10.47;;
10293;SDS011;5192;50.328;7.610;2022-11-20T13:38:28;13.23;;;10.03;;
10293;SDS011;5192;50.328;7.610;2022-11-20T13:40:54;14.00;;;11.20;;
10293;SDS011;5192;50.328;7.610;2022-11-20T13:43:49;14.57;;;10.23;;
10293;SDS011;5192;50.328;7.610;2022-11-20T13:46:18;10.43;;;7.63;;
10293;SDS011;5192;50.328;7.610;2022-11-20T13:48:50;10.67;;;7.77;;
10293;SDS011;5192;50.328;7.610;2022-11-20T13:54:22;13.53;;;9.43;;
10293;SDS011;5192;50.328;7.610;2022-11-20T14:00:23;13.80;;;9.33;;
10293;SDS011;5192;50.328;7.610;2022-11-20T14:03:17;10.37;;;8.50;;
10293;SDS011;5192;50.328;7.610;2022-11-20T14:06:11;9.60;;;6.40;;
10293;SDS011;5192;50.328;7.610;2022-11-20T14:08:50;8.27;;;5.23;;
10293;SDS011;5192;50.328;7.610;2022-11-20T14:11:20;6.20;;;4.37;;
10293;SDS011;5192;50.328;7.610;2022-11-20T14:16:41;6.47;;;4.27;;
10293;SDS011;5192;50.328;7.610;2022-11-20T14:24:49;4.60;;;3.73;;
10293;SDS011;5192;50.328;7.610;2022-11-20T14:27:42;5.60;;;3.77;;
10293;SDS011;5192;50.328;7.610;2022-11-20T14:30:23;9.07;;;5.97;;
10293;SDS011;5192;50.328;7.610;2022-11-20T14:33:12;6.83;;;4.40;;
10293;SDS011;5192;50.328;7.610;2022-11-20T14:35:47;5.77;;;3.73;;
10293;SDS011;5192;50.328;7.610;2022-11-20T14:38:16;6.23;;;3.60;;
10293;SDS011;5192;50.328;7.610;2022-11-20T14:40:45;6.17;;;3.53;;
10293;SDS011;5192;50.328;7.610;2022-11-20T14:43:28;5.97;;;3.90;;
10293;SDS011;5192;50.328;7.610;2022-11-20T14:51:33;5.33;;;4.57;;
10293;SDS011;5192;50.328;7.610;2022-11-20T15:00:38;4.33;;;2.80;;
10293;SDS011;5192;50.328;7.610;2022-11-20T15:02:44;7.10;;;3.97;;
10293;SDS011;5192;50.328;7.610;2022-11-20T15:05:13;8.97;;;5.00;;
10293;SDS011;5192;50.328;7.610;2022-11-20T15:07:43;7.23;;;4.40;;
10293;SDS011;5192;50.328;7.610;2022-11-20T15:13:10;4.57;;;2.70;;
10293;SDS011;5192;50.328;7.610;2022-11-20T15:18:13;4.57;;;3.13;;
10293;SDS011;5192;50.328;7.610;2022-11-20T15:20:54;3.53;;;2.63;;
10293;SDS011;5192;50.328;7.610;2022-11-20T15:23:22;6.63;;;2.43;;
10293;SDS011;5192;50.328;7.610;2022-11-20T15:25:54;5.70;;;2.73;;
10293;SDS011;5192;50.328;7.610;2022-11-20T15:31:09;7.17;;;3.80;;
10293;SDS011;5192;50.328;7.610;2022-11-20T15:33:41;6.57;;;3.47;;
10293;SDS011;5192;50.328;7.610;2022-11-20T15:36:09;5.53;;;3.53;;
10293;SDS011;5192;50.328;7.610;2022-11-20T15:38:34;5.77;;;3.33;;
10293;SDS011;5192;50.328;7.610;2022-11-20T15:41:01;6.47;;;3.10;;
10293;SDS011;5192;50.328;7.610;2022-11-20T15:43:27;6.53;;;3.47;;
10293;SDS011;5192;50.328;7.610;2022-11-20T15:45:53;4.77;;;2.53;;
10293;SDS011;5192;50.328;7.610;2022-11-20T15:48:27;4.47;;;2.30;;
10293;SDS011;5192;50.328;7.610;2022-11-20T15:53:23;4.73;;;2.60;;
10293;SDS011;5192;50.328;7.610;2022-11-20T15:55:50;3.60;;;2.77;;
10293;SDS011;5192;50.328;7.610;2022-11-20T15:58:15;5.43;;;2.30;;
10293;SDS011;5192;50.328;7.610;2022-11-20T16:00:43;7.10;;;3.00;;
10293;SDS011;5192;50.328;7.610;2022-11-20T16:03:14;4.77;;;2.80;;
10293;SDS011;5192;50.328;7.610;2022-11-20T16:05:42;4.03;;;2.47;;
10293;SDS011;5192;50.328;7.610;2022-11-20T16:08:08;4.30;;;2.40;;
10293;SDS011;5192;50.328;7.610;2022-11-20T16:10:36;7.70;;;2.83;;
10293;SDS011;5192;50.328;7.610;2022-11-20T16:13:02;5.73;;;2.40;;
10293;SDS011;5192;50.328;7.610;2022-11-20T16:15:51;4.80;;;2.40;;
10293;SDS011;5192;50.328;7.610;2022-11-20T16:18:21;3.63;;;2.30;;
10293;SDS011;5192;50.328;7.610;2022-11-20T16:20:49;4.67;;;2.40;;
10293;SDS011;5192;50.328;7.610;2022-11-20T16:23:17;5.33;;;2.63;;
10293;SDS011;5192;50.328;7.610;2022-11-20T16:25:43;6.60;;;2.57;;
10293;SDS011;5192;50.328;7.610;2022-11-20T16:28:11;6.77;;;3.50;;
10293;SDS011;5192;50.328;7.610;2022-11-20T16:30:37;5.23;;;2.43;;
10293;SDS011;5192;50.328;7.610;2022-11-20T16:33:09;6.10;;;2.80;;
10293;SDS011;5192;50.328;7.610;2022-11-20T16:35:39;4.37;;;2.47;;
10293;SDS011;5192;50.328;7.610;2022-11-20T16:38:05;4.20;;;2.60;;
10293;SDS011;5192;50.328;7.610;2022-11-20T16:40:33;5.53;;;2.80;;
10293;SDS011;5192;50.328;7.610;2022-11-20T16:43:09;6.13;;;3.20;;
10293;SDS011;5192;50.328;7.610;2022-11-20T16:45:43;5.53;;;2.87;;
10293;SDS011;5192;50.328;7.610;2022-11-20T16:48:14;7.27;;;3.30;;
10293;SDS011;5192;50.328;7.610;2022-11-20T16:51:02;6.57;;;2.80;;
10293;SDS011;5192;50.328;7.610;2022-11-20T16:53:30;5.57;;;2.50;;
10293;SDS011;5192;50.328;7.610;2022-11-20T16:56:07;4.10;;;2.07;;
10293;SDS011;5192;50.328;7.610;2022-11-20T16:58:58;5.13;;;2.37;;
10293;SDS011;5192;50.328;7.610;2022-11-20T17:01:26;3.20;;;2.90;;
10293;SDS011;5192;50.328;7.610;2022-11-20T17:06:42;6.30;;;3.07;;
10293;SDS011;5192;50.328;7.610;2022-11-20T17:09:09;7.80;;;3.60;;
10293;SDS011;5192;50.328;7.610;2022-11-20T17:11:38;3.03;;;2.40;;
10293;SDS011;5192;50.328;7.610;2022-11-20T17:14:05;5.77;;;2.87;;
10293;SDS011;5192;50.328;7.610;2022-11-20T17:16:32;3.90;;;2.87;;
10293;SDS011;5192;50.328;7.610;2022-11-20T17:19:02;4.90;;;2.50;;
10293;SDS011;5192;50.328;7.610;2022-11-20T17:21:29;6.27;;;2.50;;
10293;SDS011;5192;50.328;7.610;2022-11-20T17:23:59;4.87;;;2.73;;
10293;SDS011;5192;50.328;7.610;2022-11-20T17:26:31;4.77;;;2.80;;
10293;SDS011;5192;50.328;7.610;2022-11-20T17:29:01;7.20;;;3.00;;
10293;SDS011;5192;50.328;7.610;2022-11-20T17:31:48;3.93;;;3.00;;
10293;SDS011;5192;50.328;7.610;2022-11-20T17:34:14;6.63;;;3.00;;
10293;SDS011;5192;50.328;7.610;2022-11-20T17:36:43;3.40;;;2.70;;
10293;SDS011;5192;50.328;7.610;2022-11-20T17:39:10;3.93;;;2.43;;
10293;SDS011;5192;50.328;7.610;2022-11-20T17:41:42;4.47;;;2.80;;
10293;SDS011;5192;50.328;7.610;2022-11-20T17:44:10;7.17;;;2.43;;